Time;durP1;ratioP1;P1;durP2;ratioP2;P2;SDS_P1;SDS_P2;PMS_P1;PMS_P2;Temp;Humidity;BMP_temperature;BMP_pressure;BME280_temperature;BME280_humidity;BME280_pressure;Samples;Min_cycle;Max_cycle;Signal;HPM_P1;HPM_P2
2022/03/17 00:00:00;;;;;;;21.7;19.6;;;;;;;11.6;100.0;101670;;;;
2022/03/17 00:01:01;;;;;;;21.7;19.6;;;;;;;11.5;100.0;101670;;;;
2022/03/17 00:02:00;;;;;;;21.7;19.6;;;;;;;11.5;100.0;101670;;;;
2022/03/17 00:03:00;;;;;;;21.7;19.6;;;;;;;11.4;100.0;101660;;;;
2022/03/17 00:04:00;;;;;;;21.7;19.6;;;;;;;11.4;100.0;101660;;;;
2022/03/17 00:05:00;;;;;;;21.7;19.6;;;;;;;11.5;100.0;101660;;;;
2022/03/17 00:06:00;;;;;;;21.7;19.6;;;;;;;11.5;100.0;101660;;;;
2022/03/17 00:07:00;;;;;;;21.7;19.6;;;;;;;11.4;100.0;101660;;;;
2022/03/17 00:08:00;;;;;;;21.7;19.6;;;;;;;11.4;100.0;101660;;;;
2022/03/17 00:09:01;;;;;;;21.7;19.6;;;;;;;11.4;100.0;101660;;;;
2022/03/17 00:10:00;;;;;;;21.7;19.6;;;;;;;11.4;100.0;101660;;;;
2022/03/17 00:11:00;;;;;;;21.7;19.6;;;;;;;11.4;100.0;101660;;;;
2022/03/17 00:12:00;;;;;;;21.7;19.6;;;;;;;11.4;100.0;101660;;;;
2022/03/17 00:13:00;;;;;;;21.7;19.6;;;;;;;11.4;100.0;101650;;;;
2022/03/17 00:14:01;;;;;;;21.7;19.6;;;;;;;11.4;100.0;101650;;;;
2022/03/17 00:15:00;;;;;;;21.7;19.6;;;;;;;11.4;100.0;101650;;;;
2022/03/17 00:16:00;;;;;;;21.2;19.3;;;;;;;11.4;100.0;101650;;;;
2022/03/17 00:17:00;;;;;;;21.2;19.3;;;;;;;11.5;100.0;101660;;;;
2022/03/17 00:18:00;;;;;;;21.2;19.3;;;;;;;11.5;100.0;101660;;;;
2022/03/17 00:19:05;;;;;;;21.2;19.3;;;;;;;11.5;100.0;101670;;;;
2022/03/17 00:20:00;;;;;;;21.2;19.3;;;;;;;11.5;100.0;101670;;;;
2022/03/17 00:21:00;;;;;;;21.2;19.3;;;;;;;11.5;100.0;101660;;;;
2022/03/17 00:22:00;;;;;;;21.2;19.3;;;;;;;11.5;100.0;101660;;;;
2022/03/17 00:23:00;;;;;;;21.2;19.3;;;;;;;11.4;100.0;101660;;;;
2022/03/17 00:24:00;;;;;;;21.2;19.3;;;;;;;11.4;100.0;101660;;;;
2022/03/17 00:25:00;;;;;;;21.2;19.3;;;;;;;11.4;100.0;101660;;;;
2022/03/17 00:26:00;;;;;;;21.2;19.3;;;;;;;11.4;100.0;101660;;;;
2022/03/17 00:27:00;;;;;;;21.2;19.3;;;;;;;11.5;100.0;101660;;;;
2022/03/17 00:28:00;;;;;;;21.2;19.3;;;;;;;11.5;100.0;101660;;;;
2022/03/17 00:29:00;;;;;;;21.2;19.3;;;;;;;11.4;100.0;101660;;;;
2022/03/17 00:30:00;;;;;;;21.2;19.3;;;;;;;11.4;100.0;101660;;;;
2022/03/17 00:31:00;;;;;;;21.2;19.3;;;;;;;11.4;100.0;101660;;;;
2022/03/17 00:32:00;;;;;;;21.2;19.3;;;;;;;11.4;100.0;101660;;;;
2022/03/17 00:33:00;;;;;;;21.2;19.3;;;;;;;11.5;100.0;101660;;;;
2022/03/17 00:34:00;;;;;;;21.2;19.3;;;;;;;11.5;100.0;101660;;;;
2022/03/17 00:36:00;;;;;;;22.2;20.1;;;;;;;11.4;100.0;101660;;;;
2022/03/17 00:37:00;;;;;;;22.2;20.1;;;;;;;11.5;100.0;101650;;;;
2022/03/17 00:38:00;;;;;;;22.2;20.1;;;;;;;11.5;100.0;101650;;;;
2022/03/17 00:39:00;;;;;;;22.2;20.1;;;;;;;11.3;100.0;101660;;;;
2022/03/17 00:40:00;;;;;;;22.2;20.1;;;;;;;11.3;100.0;101660;;;;
2022/03/17 00:41:00;;;;;;;22.2;20.1;;;;;;;11.2;100.0;101660;;;;
2022/03/17 00:42:00;;;;;;;22.2;20.1;;;;;;;11.2;100.0;101660;;;;
2022/03/17 00:43:01;;;;;;;22.2;20.1;;;;;;;11.3;100.0;101660;;;;
2022/03/17 00:44:00;;;;;;;22.2;20.1;;;;;;;11.3;100.0;101660;;;;
2022/03/17 00:45:00;;;;;;;22.2;20.1;;;;;;;11.4;100.0;101650;;;;
2022/03/17 00:46:00;;;;;;;22.2;20.1;;;;;;;11.4;100.0;101650;;;;
2022/03/17 00:47:01;;;;;;;22.2;20.1;;;;;;;11.3;100.0;101660;;;;
2022/03/17 00:48:00;;;;;;;22.2;20.1;;;;;;;11.3;100.0;101660;;;;
2022/03/17 00:49:00;;;;;;;22.2;20.1;;;;;;;11.5;100.0;101660;;;;
2022/03/17 00:50:00;;;;;;;22.2;20.1;;;;;;;11.5;100.0;101660;;;;
2022/03/17 00:51:00;;;;;;;22.2;20.1;;;;;;;11.4;100.0;101660;;;;
2022/03/17 00:52:00;;;;;;;22.2;20.1;;;;;;;11.4;100.0;101660;;;;
2022/03/17 00:53:00;;;;;;;22.2;20.1;;;;;;;11.4;100.0;101660;;;;
2022/03/17 00:54:00;;;;;;;22.2;20.1;;;;;;;11.4;100.0;101660;;;;
2022/03/17 00:55:00;;;;;;;22.2;20.1;;;;;;;11.3;100.0;101660;;;;
2022/03/17 00:56:00;;;;;;;21.9;19.8;;;;;;;11.3;100.0;101660;;;;
2022/03/17 00:57:00;;;;;;;21.9;19.8;;;;;;;11.2;100.0;101660;;;;
2022/03/17 00:58:00;;;;;;;21.9;19.8;;;;;;;11.2;100.0;101660;;;;
2022/03/17 00:59:00;;;;;;;21.9;19.8;;;;;;;11.3;100.0;101660;;;;
2022/03/17 01:00:00;;;;;;;21.9;19.8;;;;;;;11.3;100.0;101660;;;;
2022/03/17 01:01:00;;;;;;;21.9;19.8;;;;;;;11.2;100.0;101660;;;;
2022/03/17 01:02:00;;;;;;;21.9;19.8;;;;;;;11.2;100.0;101660;;;;
2022/03/17 01:03:01;;;;;;;21.9;19.8;;;;;;;11.3;100.0;101670;;;;
2022/03/17 01:04:00;;;;;;;21.9;19.8;;;;;;;11.3;100.0;101670;;;;
2022/03/17 01:05:00;;;;;;;21.9;19.8;;;;;;;11.2;100.0;101670;;;;
2022/03/17 01:06:00;;;;;;;21.9;19.8;;;;;;;11.2;100.0;101670;;;;
2022/03/17 01:07:00;;;;;;;21.9;19.8;;;;;;;11.2;100.0;101670;;;;
2022/03/17 01:08:00;;;;;;;21.9;19.8;;;;;;;11.2;100.0;101670;;;;
2022/03/17 01:09:00;;;;;;;21.9;19.8;;;;;;;11.2;100.0;101670;;;;
2022/03/17 01:10:00;;;;;;;21.9;19.8;;;;;;;11.2;100.0;101670;;;;
2022/03/17 01:11:00;;;;;;;21.9;19.8;;;;;;;11.3;100.0;101670;;;;
2022/03/17 01:12:00;;;;;;;21.9;19.8;;;;;;;11.3;100.0;101670;;;;
2022/03/17 01:13:02;;;;;;;21.9;19.8;;;;;;;11.4;100.0;101670;;;;
2022/03/17 01:14:00;;;;;;;21.9;19.8;;;;;;;11.4;100.0;101670;;;;
2022/03/17 01:15:00;;;;;;;21.9;19.8;;;;;;;11.3;100.0;101660;;;;
2022/03/17 01:16:00;;;;;;;22.7;20.5;;;;;;;11.3;100.0;101660;;;;
2022/03/17 01:17:00;;;;;;;22.7;20.5;;;;;;;11.3;100.0;101660;;;;
2022/03/17 01:18:02;;;;;;;22.7;20.5;;;;;;;11.3;100.0;101660;;;;
2022/03/17 01:19:00;;;;;;;22.7;20.5;;;;;;;11.2;100.0;101670;;;;
2022/03/17 01:20:00;;;;;;;22.7;20.5;;;;;;;11.2;100.0;101670;;;;
2022/03/17 01:21:00;;;;;;;22.7;20.5;;;;;;;11.3;100.0;101670;;;;
2022/03/17 01:22:00;;;;;;;22.7;20.5;;;;;;;11.3;100.0;101670;;;;
2022/03/17 01:23:00;;;;;;;22.7;20.5;;;;;;;11.2;100.0;101660;;;;
2022/03/17 01:24:00;;;;;;;22.7;20.5;;;;;;;11.2;100.0;101660;;;;
2022/03/17 01:25:00;;;;;;;22.7;20.5;;;;;;;11.3;100.0;101670;;;;
2022/03/17 01:26:00;;;;;;;22.7;20.5;;;;;;;11.3;100.0;101670;;;;
2022/03/17 01:27:00;;;;;;;22.7;20.5;;;;;;;11.1;100.0;101670;;;;
2022/03/17 01:28:00;;;;;;;22.7;20.5;;;;;;;11.1;100.0;101670;;;;
2022/03/17 01:29:00;;;;;;;22.7;20.5;;;;;;;11.2;100.0;101670;;;;
2022/03/17 01:30:00;;;;;;;22.7;20.5;;;;;;;11.2;100.0;101670;;;;
2022/03/17 01:31:00;;;;;;;22.7;20.5;;;;;;;11.3;100.0;101670;;;;
2022/03/17 01:32:00;;;;;;;22.7;20.5;;;;;;;11.3;100.0;101670;;;;
2022/03/17 01:33:00;;;;;;;22.7;20.5;;;;;;;11.3;100.0;101670;;;;
2022/03/17 01:34:00;;;;;;;22.7;20.5;;;;;;;11.3;100.0;101670;;;;
2022/03/17 01:35:00;;;;;;;22.7;20.5;;;;;;;11.2;100.0;101660;;;;
2022/03/17 01:36:00;;;;;;;23.4;21.2;;;;;;;11.2;100.0;101660;;;;
2022/03/17 01:37:00;;;;;;;23.4;21.2;;;;;;;11.3;100.0;101660;;;;
2022/03/17 01:38:00;;;;;;;23.4;21.2;;;;;;;11.3;100.0;101660;;;;
2022/03/17 01:39:00;;;;;;;23.4;21.2;;;;;;;11.2;100.0;101660;;;;
2022/03/17 01:40:00;;;;;;;23.4;21.2;;;;;;;11.2;100.0;101660;;;;
2022/03/17 01:41:00;;;;;;;23.4;21.2;;;;;;;11.2;100.0;101660;;;;
2022/03/17 01:42:02;;;;;;;23.4;21.2;;;;;;;11.2;100.0;101660;;;;
2022/03/17 01:43:00;;;;;;;23.4;21.2;;;;;;;11.3;100.0;101650;;;;
2022/03/17 01:44:00;;;;;;;23.4;21.2;;;;;;;11.3;100.0;101650;;;;
2022/03/17 01:45:00;;;;;;;23.4;21.2;;;;;;;11.3;100.0;101650;;;;
2022/03/17 01:46:00;;;;;;;23.4;21.2;;;;;;;11.3;100.0;101650;;;;
2022/03/17 01:48:00;;;;;;;23.4;21.2;;;;;;;11.2;100.0;101660;;;;
2022/03/17 01:49:00;;;;;;;23.4;21.2;;;;;;;11.3;100.0;101670;;;;
2022/03/17 01:50:02;;;;;;;23.4;21.2;;;;;;;11.3;100.0;101670;;;;
2022/03/17 01:51:00;;;;;;;23.4;21.2;;;;;;;11.3;100.0;101680;;;;
2022/03/17 01:52:00;;;;;;;23.4;21.2;;;;;;;11.3;100.0;101680;;;;
2022/03/17 01:53:00;;;;;;;23.4;21.2;;;;;;;11.3;100.0;101680;;;;
2022/03/17 01:54:00;;;;;;;23.4;21.2;;;;;;;11.3;100.0;101680;;;;
2022/03/17 01:55:00;;;;;;;23.4;21.2;;;;;;;11.4;100.0;101660;;;;
2022/03/17 01:56:00;;;;;;;24.1;21.7;;;;;;;11.4;100.0;101660;;;;
2022/03/17 01:57:01;;;;;;;24.1;21.7;;;;;;;11.4;100.0;101660;;;;
2022/03/17 01:58:00;;;;;;;24.1;21.7;;;;;;;11.4;100.0;101660;;;;
2022/03/17 01:59:00;;;;;;;24.1;21.7;;;;;;;11.5;100.0;101640;;;;
2022/03/17 02:00:00;;;;;;;24.1;21.7;;;;;;;11.5;100.0;101640;;;;
2022/03/17 02:01:01;;;;;;;24.1;21.7;;;;;;;11.4;100.0;101650;;;;
2022/03/17 02:02:02;;;;;;;24.1;21.7;;;;;;;11.4;100.0;101650;;;;
2022/03/17 02:03:00;;;;;;;24.1;21.7;;;;;;;11.4;100.0;101650;;;;
2022/03/17 02:04:00;;;;;;;24.1;21.7;;;;;;;11.4;100.0;101650;;;;
2022/03/17 02:05:03;;;;;;;24.1;21.7;;;;;;;11.5;100.0;101660;;;;
2022/03/17 02:06:00;;;;;;;24.1;21.7;;;;;;;11.5;100.0;101660;;;;
2022/03/17 02:07:00;;;;;;;24.1;21.7;;;;;;;11.6;100.0;101660;;;;
2022/03/17 02:08:01;;;;;;;24.1;21.7;;;;;;;11.6;100.0;101660;;;;
2022/03/17 02:09:00;;;;;;;24.1;21.7;;;;;;;11.6;100.0;101660;;;;
2022/03/17 02:10:00;;;;;;;24.1;21.7;;;;;;;11.6;100.0;101660;;;;
2022/03/17 02:14:00;;;;;;;24.1;21.7;;;;;;;11.6;100.0;101660;;;;
2022/03/17 02:15:03;;;;;;;24.1;21.7;;;;;;;11.5;100.0;101660;;;;
2022/03/17 02:16:03;;;;;;;24.4;22.0;;;;;;;11.5;100.0;101660;;;;
2022/03/17 02:17:00;;;;;;;24.4;22.0;;;;;;;11.5;100.0;101650;;;;
2022/03/17 02:18:02;;;;;;;24.4;22.0;;;;;;;11.5;100.0;101650;;;;
2022/03/17 02:19:00;;;;;;;24.4;22.0;;;;;;;11.6;100.0;101650;;;;
2022/03/17 02:20:01;;;;;;;24.4;22.0;;;;;;;11.6;100.0;101650;;;;
2022/03/17 02:21:00;;;;;;;24.4;22.0;;;;;;;11.6;100.0;101650;;;;
2022/03/17 02:22:00;;;;;;;24.4;22.0;;;;;;;11.6;100.0;101650;;;;
2022/03/17 02:25:33;;;;;;;24.4;22.0;;;;;;;11.6;100.0;101660;;;;
2022/03/17 02:26:02;;;;;;;24.4;22.0;;;;;;;11.6;100.0;101660;;;;
2022/03/17 02:27:02;;;;;;;24.4;22.0;;;;;;;11.6;100.0;101670;;;;
2022/03/17 02:28:02;;;;;;;24.4;22.0;;;;;;;11.6;100.0;101670;;;;
2022/03/17 02:29:00;;;;;;;24.4;22.0;;;;;;;11.6;100.0;101660;;;;
2022/03/17 02:30:03;;;;;;;24.4;22.0;;;;;;;11.6;100.0;101660;;;;
2022/03/17 02:31:01;;;;;;;24.4;22.0;;;;;;;11.6;100.0;101670;;;;
2022/03/17 02:32:00;;;;;;;24.4;22.0;;;;;;;11.6;100.0;101670;;;;
2022/03/17 02:33:01;;;;;;;24.4;22.0;;;;;;;11.6;100.0;101670;;;;
2022/03/17 02:34:00;;;;;;;24.4;22.0;;;;;;;11.6;100.0;101670;;;;
2022/03/17 02:35:03;;;;;;;24.4;22.0;;;;;;;11.6;100.0;101670;;;;
2022/03/17 02:36:00;;;;;;;24.6;20.9;;;;;;;11.6;100.0;101670;;;;
2022/03/17 02:37:01;;;;;;;24.6;20.9;;;;;;;11.7;100.0;101670;;;;
2022/03/17 02:38:03;;;;;;;24.6;20.9;;;;;;;11.7;100.0;101670;;;;
2022/03/17 02:39:00;;;;;;;24.6;20.9;;;;;;;11.8;100.0;101670;;;;
2022/03/17 02:40:01;;;;;;;24.6;20.9;;;;;;;11.8;100.0;101670;;;;
2022/03/17 02:41:00;;;;;;;24.6;20.9;;;;;;;11.6;100.0;101670;;;;
2022/03/17 02:42:00;;;;;;;24.6;20.9;;;;;;;11.6;100.0;101670;;;;
2022/03/17 02:43:00;;;;;;;24.6;20.9;;;;;;;11.6;100.0;101670;;;;
2022/03/17 02:44:00;;;;;;;24.6;20.9;;;;;;;11.6;100.0;101670;;;;
2022/03/17 02:45:01;;;;;;;24.6;20.9;;;;;;;11.6;100.0;101670;;;;
2022/03/17 02:46:00;;;;;;;24.6;20.9;;;;;;;11.6;100.0;101670;;;;
2022/03/17 02:47:00;;;;;;;24.6;20.9;;;;;;;11.6;100.0;101680;;;;
2022/03/17 02:48:00;;;;;;;24.6;20.9;;;;;;;11.6;100.0;101680;;;;
2022/03/17 02:49:00;;;;;;;24.6;20.9;;;;;;;11.6;100.0;101680;;;;
2022/03/17 02:50:00;;;;;;;24.6;20.9;;;;;;;11.6;100.0;101680;;;;
2022/03/17 02:51:00;;;;;;;24.6;20.9;;;;;;;11.7;100.0;101690;;;;
2022/03/17 02:52:05;;;;;;;24.6;20.9;;;;;;;11.7;100.0;101690;;;;
2022/03/17 02:53:05;;;;;;;24.6;20.9;;;;;;;11.6;100.0;101680;;;;
2022/03/17 02:54:00;;;;;;;24.6;20.9;;;;;;;11.6;100.0;101680;;;;
2022/03/17 02:55:00;;;;;;;24.6;20.9;;;;;;;11.6;100.0;101680;;;;
2022/03/17 02:56:00;;;;;;;23.3;20.9;;;;;;;11.6;100.0;101680;;;;
2022/03/17 02:57:00;;;;;;;23.3;20.9;;;;;;;11.7;100.0;101690;;;;
2022/03/17 02:58:00;;;;;;;23.3;20.9;;;;;;;11.7;100.0;101690;;;;
2022/03/17 02:59:00;;;;;;;23.3;20.9;;;;;;;11.7;100.0;101690;;;;
2022/03/17 03:00:00;;;;;;;23.3;20.9;;;;;;;11.7;100.0;101690;;;;
2022/03/17 03:01:00;;;;;;;23.3;20.9;;;;;;;11.7;100.0;101690;;;;
2022/03/17 03:02:04;;;;;;;23.3;20.9;;;;;;;11.7;100.0;101690;;;;
2022/03/17 03:03:00;;;;;;;23.3;20.9;;;;;;;11.7;100.0;101690;;;;
2022/03/17 03:04:00;;;;;;;23.3;20.9;;;;;;;11.7;100.0;101690;;;;
2022/03/17 03:05:00;;;;;;;23.3;20.9;;;;;;;11.7;100.0;101700;;;;
2022/03/17 03:06:00;;;;;;;23.3;20.9;;;;;;;11.7;100.0;101700;;;;
2022/03/17 03:07:02;;;;;;;23.3;20.9;;;;;;;11.8;100.0;101710;;;;
2022/03/17 03:08:01;;;;;;;23.3;20.9;;;;;;;11.8;100.0;101710;;;;
2022/03/17 03:09:00;;;;;;;23.3;20.9;;;;;;;11.8;100.0;101710;;;;
2022/03/17 03:10:00;;;;;;;23.3;20.9;;;;;;;11.8;100.0;101710;;;;
2022/03/17 03:11:00;;;;;;;23.3;20.9;;;;;;;11.7;100.0;101710;;;;
2022/03/17 03:12:00;;;;;;;23.3;20.9;;;;;;;11.7;100.0;101710;;;;
2022/03/17 03:13:00;;;;;;;23.3;20.9;;;;;;;11.7;100.0;101710;;;;
2022/03/17 03:14:00;;;;;;;23.3;20.9;;;;;;;11.7;100.0;101710;;;;
2022/03/17 03:15:00;;;;;;;23.3;20.9;;;;;;;11.6;100.0;101720;;;;
2022/03/17 03:16:01;;;;;;;26.9;23.8;;;;;;;11.6;100.0;101720;;;;
2022/03/17 03:17:00;;;;;;;26.9;23.8;;;;;;;11.6;100.0;101720;;;;
2022/03/17 03:18:01;;;;;;;26.9;23.8;;;;;;;11.6;100.0;101720;;;;
2022/03/17 03:19:00;;;;;;;26.9;23.8;;;;;;;11.7;100.0;101730;;;;
2022/03/17 03:20:00;;;;;;;26.9;23.8;;;;;;;11.7;100.0;101730;;;;
2022/03/17 03:21:00;;;;;;;26.9;23.8;;;;;;;11.6;100.0;101730;;;;
2022/03/17 03:22:01;;;;;;;26.9;23.8;;;;;;;11.6;100.0;101730;;;;
2022/03/17 03:23:00;;;;;;;26.9;23.8;;;;;;;11.6;100.0;101740;;;;
2022/03/17 03:24:00;;;;;;;26.9;23.8;;;;;;;11.6;100.0;101740;;;;
2022/03/17 03:25:00;;;;;;;26.9;23.8;;;;;;;11.6;100.0;101750;;;;
2022/03/17 03:26:00;;;;;;;26.9;23.8;;;;;;;11.6;100.0;101750;;;;
2022/03/17 03:27:00;;;;;;;26.9;23.8;;;;;;;11.4;100.0;101750;;;;
2022/03/17 03:28:08;;;;;;;26.9;23.8;;;;;;;11.3;100.0;101760;;;;
2022/03/17 03:29:00;;;;;;;26.9;23.8;;;;;;;11.3;100.0;101760;;;;
2022/03/17 03:30:01;;;;;;;26.9;23.8;;;;;;;11.3;100.0;101760;;;;
2022/03/17 03:31:00;;;;;;;26.9;23.8;;;;;;;11.2;100.0;101770;;;;
2022/03/17 03:32:03;;;;;;;26.9;23.8;;;;;;;11.2;100.0;101770;;;;
2022/03/17 03:33:01;;;;;;;26.9;23.8;;;;;;;11.2;100.0;101780;;;;
2022/03/17 03:34:00;;;;;;;26.9;23.8;;;;;;;11.2;100.0;101780;;;;
2022/03/17 03:37:22;;;;;;;26.9;23.8;;;;;;;11.0;100.0;101790;;;;
2022/03/17 03:38:00;;;;;;;20.2;18.2;;;;;;;11.0;100.0;101790;;;;
2022/03/17 03:39:00;;;;;;;20.2;18.2;;;;;;;10.9;100.0;101790;;;;
2022/03/17 03:40:00;;;;;;;20.2;18.2;;;;;;;10.9;100.0;101790;;;;
2022/03/17 03:41:01;;;;;;;20.2;18.2;;;;;;;10.9;100.0;101790;;;;
2022/03/17 03:42:00;;;;;;;20.2;18.2;;;;;;;10.9;100.0;101790;;;;
2022/03/17 03:43:00;;;;;;;20.2;18.2;;;;;;;10.8;100.0;101800;;;;
2022/03/17 03:44:00;;;;;;;20.2;18.2;;;;;;;10.8;100.0;101800;;;;
2022/03/17 03:45:00;;;;;;;20.2;18.2;;;;;;;10.7;100.0;101810;;;;
2022/03/17 03:46:00;;;;;;;20.2;18.2;;;;;;;10.7;100.0;101810;;;;
2022/03/17 03:47:00;;;;;;;20.2;18.2;;;;;;;10.7;100.0;101810;;;;
2022/03/17 03:48:00;;;;;;;20.2;18.2;;;;;;;10.7;100.0;101810;;;;
2022/03/17 03:49:00;;;;;;;20.2;18.2;;;;;;;10.7;100.0;101810;;;;
2022/03/17 03:50:00;;;;;;;20.2;18.2;;;;;;;10.7;100.0;101810;;;;
2022/03/17 03:51:00;;;;;;;20.2;18.2;;;;;;;10.5;100.0;101820;;;;
2022/03/17 03:52:00;;;;;;;20.2;18.2;;;;;;;10.5;100.0;101820;;;;
2022/03/17 03:53:00;;;;;;;20.2;18.2;;;;;;;10.6;100.0;101820;;;;
2022/03/17 03:55:00;;;;;;;20.2;18.2;;;;;;;10.5;100.0;101830;;;;
2022/03/17 03:56:00;;;;;;;17.2;15.7;;;;;;;10.5;100.0;101830;;;;
2022/03/17 03:57:00;;;;;;;17.2;15.7;;;;;;;10.5;100.0;101830;;;;
2022/03/17 03:58:00;;;;;;;17.2;15.7;;;;;;;10.5;100.0;101830;;;;
2022/03/17 03:59:02;;;;;;;17.2;15.7;;;;;;;10.5;100.0;101840;;;;
2022/03/17 04:00:00;;;;;;;17.2;15.7;;;;;;;10.5;100.0;101840;;;;
2022/03/17 04:01:00;;;;;;;17.2;15.7;;;;;;;10.6;100.0;101840;;;;
2022/03/17 04:02:02;;;;;;;17.2;15.7;;;;;;;10.6;100.0;101840;;;;
2022/03/17 04:03:03;;;;;;;17.2;15.7;;;;;;;10.4;100.0;101860;;;;
2022/03/17 04:04:01;;;;;;;17.2;15.7;;;;;;;10.4;100.0;101860;;;;
2022/03/17 04:05:00;;;;;;;17.2;15.7;;;;;;;10.3;100.0;101860;;;;
2022/03/17 04:06:00;;;;;;;17.2;15.7;;;;;;;10.3;100.0;101860;;;;
2022/03/17 04:07:01;;;;;;;17.2;15.7;;;;;;;10.2;100.0;101870;;;;
2022/03/17 04:08:00;;;;;;;17.2;15.7;;;;;;;10.2;100.0;101870;;;;
2022/03/17 04:09:00;;;;;;;17.2;15.7;;;;;;;10.1;100.0;101870;;;;
2022/03/17 04:10:00;;;;;;;17.2;15.7;;;;;;;10.1;100.0;101870;;;;
2022/03/17 04:11:00;;;;;;;17.2;15.7;;;;;;;10.1;100.0;101880;;;;
2022/03/17 04:12:00;;;;;;;17.2;15.7;;;;;;;10.1;100.0;101880;;;;
2022/03/17 04:13:00;;;;;;;17.2;15.7;;;;;;;10.1;100.0;101890;;;;
2022/03/17 04:14:00;;;;;;;17.2;15.7;;;;;;;10.1;100.0;101890;;;;
2022/03/17 04:15:00;;;;;;;17.2;15.7;;;;;;;10.0;100.0;101900;;;;
2022/03/17 04:16:00;;;;;;;11.5;10.5;;;;;;;10.0;100.0;101900;;;;
2022/03/17 04:17:00;;;;;;;11.5;10.5;;;;;;;10.0;100.0;101890;;;;
2022/03/17 04:18:00;;;;;;;11.5;10.5;;;;;;;10.0;100.0;101890;;;;
2022/03/17 04:19:00;;;;;;;11.5;10.5;;;;;;;9.9;100.0;101900;;;;
2022/03/17 04:20:00;;;;;;;11.5;10.5;;;;;;;9.9;100.0;101900;;;;
2022/03/17 04:21:00;;;;;;;11.5;10.5;;;;;;;10.1;100.0;101900;;;;
2022/03/17 04:22:00;;;;;;;11.5;10.5;;;;;;;10.1;100.0;101900;;;;
2022/03/17 04:23:00;;;;;;;11.5;10.5;;;;;;;10.1;100.0;101910;;;;
2022/03/17 04:24:00;;;;;;;11.5;10.5;;;;;;;10.1;100.0;101910;;;;
2022/03/17 04:25:00;;;;;;;11.5;10.5;;;;;;;9.9;100.0;101910;;;;
2022/03/17 04:26:00;;;;;;;11.5;10.5;;;;;;;9.9;100.0;101910;;;;
2022/03/17 04:27:00;;;;;;;11.5;10.5;;;;;;;9.9;100.0;101920;;;;
2022/03/17 04:28:00;;;;;;;11.5;10.5;;;;;;;9.9;100.0;101920;;;;
2022/03/17 04:29:00;;;;;;;11.5;10.5;;;;;;;9.8;100.0;101920;;;;
2022/03/17 04:30:00;;;;;;;11.5;10.5;;;;;;;9.8;100.0;101920;;;;
2022/03/17 04:31:00;;;;;;;11.5;10.5;;;;;;;9.7;100.0;101940;;;;
2022/03/17 04:32:00;;;;;;;11.5;10.5;;;;;;;9.7;100.0;101940;;;;
2022/03/17 04:33:00;;;;;;;11.5;10.5;;;;;;;9.6;100.0;101950;;;;
2022/03/17 04:34:00;;;;;;;11.5;10.5;;;;;;;9.6;100.0;101950;;;;
2022/03/17 04:35:00;;;;;;;11.5;10.5;;;;;;;9.8;100.0;101950;;;;
2022/03/17 04:36:01;;;;;;;18.2;15.3;;;;;;;9.8;100.0;101950;;;;
2022/03/17 04:37:00;;;;;;;18.2;15.3;;;;;;;9.7;100.0;101960;;;;
2022/03/17 04:38:00;;;;;;;18.2;15.3;;;;;;;9.7;100.0;101960;;;;
2022/03/17 04:39:00;;;;;;;18.2;15.3;;;;;;;9.6;100.0;101970;;;;
2022/03/17 04:40:00;;;;;;;18.2;15.3;;;;;;;9.6;100.0;101970;;;;
2022/03/17 04:41:00;;;;;;;18.2;15.3;;;;;;;9.6;100.0;101980;;;;
2022/03/17 04:42:00;;;;;;;18.2;15.3;;;;;;;9.6;100.0;101980;;;;
2022/03/17 04:43:00;;;;;;;18.2;15.3;;;;;;;9.7;100.0;101990;;;;
2022/03/17 04:44:00;;;;;;;18.2;15.3;;;;;;;9.7;100.0;101990;;;;
2022/03/17 04:45:00;;;;;;;18.2;15.3;;;;;;;9.5;100.0;101990;;;;
2022/03/17 04:46:00;;;;;;;18.2;15.3;;;;;;;9.5;100.0;101990;;;;
2022/03/17 04:47:00;;;;;;;18.2;15.3;;;;;;;9.6;100.0;102000;;;;
2022/03/17 04:48:00;;;;;;;18.2;15.3;;;;;;;9.6;100.0;102000;;;;
2022/03/17 04:49:00;;;;;;;18.2;15.3;;;;;;;9.6;100.0;102000;;;;
2022/03/17 04:50:00;;;;;;;18.2;15.3;;;;;;;9.6;100.0;102000;;;;
2022/03/17 04:51:00;;;;;;;18.2;15.3;;;;;;;9.6;100.0;102010;;;;
2022/03/17 04:52:00;;;;;;;18.2;15.3;;;;;;;9.6;100.0;102010;;;;
2022/03/17 04:54:00;;;;;;;18.2;15.3;;;;;;;9.6;100.0;102020;;;;
2022/03/17 04:55:00;;;;;;;19.1;16.7;;;;;;;9.5;100.0;102020;;;;
2022/03/17 04:56:01;;;;;;;19.1;16.7;;;;;;;9.5;100.0;102020;;;;
2022/03/17 04:57:00;;;;;;;19.1;16.7;;;;;;;9.6;100.0;102030;;;;
2022/03/17 04:58:00;;;;;;;19.1;16.7;;;;;;;9.6;100.0;102030;;;;
2022/03/17 04:59:00;;;;;;;19.1;16.7;;;;;;;9.6;100.0;102020;;;;
2022/03/17 05:00:00;;;;;;;19.1;16.7;;;;;;;9.6;100.0;102020;;;;
2022/03/17 05:01:00;;;;;;;19.1;16.7;;;;;;;9.6;100.0;102030;;;;
2022/03/17 05:02:00;;;;;;;19.1;16.7;;;;;;;9.6;100.0;102030;;;;
2022/03/17 05:03:01;;;;;;;19.1;16.7;;;;;;;9.6;100.0;102040;;;;
2022/03/17 05:04:00;;;;;;;19.1;16.7;;;;;;;9.6;100.0;102040;;;;
2022/03/17 05:05:00;;;;;;;19.1;16.7;;;;;;;9.6;100.0;102040;;;;
2022/03/17 05:06:00;;;;;;;19.1;16.7;;;;;;;9.6;100.0;102040;;;;
2022/03/17 05:07:00;;;;;;;19.1;16.7;;;;;;;9.4;100.0;102050;;;;
2022/03/17 05:08:00;;;;;;;19.1;16.7;;;;;;;9.4;100.0;102050;;;;
2022/03/17 05:09:00;;;;;;;19.1;16.7;;;;;;;9.4;100.0;102040;;;;
2022/03/17 05:10:00;;;;;;;19.1;16.7;;;;;;;9.4;100.0;102040;;;;
2022/03/17 05:11:00;;;;;;;19.1;16.7;;;;;;;9.3;100.0;102050;;;;
2022/03/17 05:12:00;;;;;;;19.1;16.7;;;;;;;9.3;100.0;102050;;;;
2022/03/17 05:13:00;;;;;;;19.1;16.7;;;;;;;9.4;100.0;102060;;;;
2022/03/17 05:14:00;;;;;;;19.1;16.7;;;;;;;9.4;100.0;102060;;;;
2022/03/17 05:15:00;;;;;;;22.5;18.9;;;;;;;9.4;100.0;102070;;;;
2022/03/17 05:16:00;;;;;;;22.5;18.9;;;;;;;9.4;100.0;102070;;;;
2022/03/17 05:17:00;;;;;;;22.5;18.9;;;;;;;9.3;100.0;102070;;;;
2022/03/17 05:18:00;;;;;;;22.5;18.9;;;;;;;9.3;100.0;102070;;;;
2022/03/17 05:19:00;;;;;;;22.5;18.9;;;;;;;9.2;100.0;102080;;;;
2022/03/17 05:20:00;;;;;;;22.5;18.9;;;;;;;9.2;100.0;102080;;;;
2022/03/17 05:21:00;;;;;;;22.5;18.9;;;;;;;9.3;100.0;102100;;;;
2022/03/17 05:22:00;;;;;;;22.5;18.9;;;;;;;9.3;100.0;102100;;;;
2022/03/17 05:23:02;;;;;;;22.5;18.9;;;;;;;9.3;100.0;102100;;;;
2022/03/17 05:24:00;;;;;;;22.5;18.9;;;;;;;9.3;100.0;102100;;;;
2022/03/17 05:25:00;;;;;;;22.5;18.9;;;;;;;9.2;100.0;102110;;;;
2022/03/17 05:26:00;;;;;;;22.5;18.9;;;;;;;9.2;100.0;102110;;;;
2022/03/17 05:27:00;;;;;;;22.5;18.9;;;;;;;9.2;100.0;102110;;;;
2022/03/17 05:28:00;;;;;;;22.5;18.9;;;;;;;9.2;100.0;102110;;;;
2022/03/17 05:29:00;;;;;;;22.5;18.9;;;;;;;9.1;100.0;102120;;;;
2022/03/17 05:30:00;;;;;;;22.5;18.9;;;;;;;9.1;100.0;102120;;;;
2022/03/17 05:31:00;;;;;;;22.5;18.9;;;;;;;9.1;100.0;102130;;;;
2022/03/17 05:32:04;;;;;;;22.5;18.9;;;;;;;9.1;100.0;102130;;;;
2022/03/17 05:33:00;;;;;;;22.5;18.9;;;;;;;9.1;100.0;102140;;;;
2022/03/17 05:34:00;;;;;;;22.5;18.9;;;;;;;9.1;100.0;102140;;;;
2022/03/17 05:35:00;;;;;;;14.0;9.0;;;;;;;9.1;100.0;102140;;;;
2022/03/17 05:36:00;;;;;;;14.0;9.0;;;;;;;9.1;100.0;102140;;;;
2022/03/17 05:37:00;;;;;;;14.0;9.0;;;;;;;9.1;100.0;102140;;;;
2022/03/17 05:38:01;;;;;;;14.0;9.0;;;;;;;9.1;100.0;102140;;;;
2022/03/17 05:39:00;;;;;;;14.0;9.0;;;;;;;9.0;100.0;102160;;;;
2022/03/17 05:41:00;;;;;;;14.0;9.0;;;;;;;9.1;100.0;102160;;;;
2022/03/17 05:42:05;;;;;;;14.0;9.0;;;;;;;9.1;100.0;102160;;;;
2022/03/17 05:43:06;;;;;;;14.0;9.0;;;;;;;9.1;100.0;102160;;;;
2022/03/17 05:44:00;;;;;;;14.0;9.0;;;;;;;9.1;100.0;102160;;;;
2022/03/17 05:45:00;;;;;;;14.0;9.0;;;;;;;8.9;100.0;102160;;;;
2022/03/17 05:46:00;;;;;;;14.0;9.0;;;;;;;8.9;100.0;102160;;;;
2022/03/17 05:47:00;;;;;;;14.0;9.0;;;;;;;8.9;100.0;102170;;;;
2022/03/17 05:48:01;;;;;;;14.0;9.0;;;;;;;8.9;100.0;102170;;;;
2022/03/17 05:49:00;;;;;;;14.0;9.0;;;;;;;8.9;100.0;102180;;;;
2022/03/17 05:50:00;;;;;;;14.0;9.0;;;;;;;8.9;100.0;102180;;;;
2022/03/17 05:51:00;;;;;;;14.0;9.0;;;;;;;8.8;100.0;102180;;;;
2022/03/17 05:52:00;;;;;;;14.0;9.0;;;;;;;8.8;100.0;102180;;;;
2022/03/17 05:53:00;;;;;;;14.0;9.0;;;;;;;8.8;100.0;102190;;;;
2022/03/17 05:54:00;;;;;;;14.0;9.0;;;;;;;8.8;100.0;102190;;;;
2022/03/17 05:55:00;;;;;;;13.0;5.9;;;;;;;8.8;100.0;102190;;;;
2022/03/17 05:56:00;;;;;;;13.0;5.9;;;;;;;8.8;100.0;102190;;;;
2022/03/17 05:57:00;;;;;;;13.0;5.9;;;;;;;8.7;100.0;102210;;;;
2022/03/17 05:58:00;;;;;;;13.0;5.9;;;;;;;8.7;100.0;102210;;;;
2022/03/17 05:59:02;;;;;;;13.0;5.9;;;;;;;8.7;100.0;102210;;;;
2022/03/17 06:00:00;;;;;;;13.0;5.9;;;;;;;8.7;100.0;102210;;;;
2022/03/17 06:01:00;;;;;;;13.0;5.9;;;;;;;8.6;100.0;102210;;;;
2022/03/17 06:02:10;;;;;;;13.0;5.9;;;;;;;8.7;100.0;102220;;;;
2022/03/17 06:03:00;;;;;;;13.0;5.9;;;;;;;8.7;100.0;102220;;;;
2022/03/17 06:04:00;;;;;;;13.0;5.9;;;;;;;8.7;100.0;102220;;;;
2022/03/17 06:05:00;;;;;;;13.0;5.9;;;;;;;8.6;100.0;102220;;;;
2022/03/17 06:06:00;;;;;;;13.0;5.9;;;;;;;8.6;100.0;102220;;;;
2022/03/17 06:07:00;;;;;;;13.0;5.9;;;;;;;8.6;100.0;102220;;;;
2022/03/17 06:08:00;;;;;;;13.0;5.9;;;;;;;8.6;100.0;102220;;;;
2022/03/17 06:09:01;;;;;;;13.0;5.9;;;;;;;8.6;100.0;102220;;;;
2022/03/17 06:10:00;;;;;;;13.0;5.9;;;;;;;8.6;100.0;102220;;;;
2022/03/17 06:11:00;;;;;;;13.0;5.9;;;;;;;8.6;100.0;102240;;;;
2022/03/17 06:12:00;;;;;;;13.0;5.9;;;;;;;8.6;100.0;102240;;;;
2022/03/17 06:13:01;;;;;;;13.0;5.9;;;;;;;8.5;100.0;102240;;;;
2022/03/17 06:14:00;;;;;;;13.0;5.9;;;;;;;8.5;100.0;102240;;;;
2022/03/17 06:15:02;;;;;;;10.3;4.6;;;;;;;8.7;100.0;102240;;;;
2022/03/17 06:16:00;;;;;;;10.3;4.6;;;;;;;8.7;100.0;102240;;;;
2022/03/17 06:17:00;;;;;;;10.3;4.6;;;;;;;8.7;100.0;102250;;;;
2022/03/17 06:18:03;;;;;;;10.3;4.6;;;;;;;8.7;100.0;102250;;;;
2022/03/17 06:19:00;;;;;;;10.3;4.6;;;;;;;8.5;100.0;102250;;;;
2022/03/17 06:20:00;;;;;;;10.3;4.6;;;;;;;8.5;100.0;102250;;;;
2022/03/17 06:21:00;;;;;;;10.3;4.6;;;;;;;8.5;100.0;102260;;;;
2022/03/17 06:22:00;;;;;;;10.3;4.6;;;;;;;8.5;100.0;102260;;;;
2022/03/17 06:23:01;;;;;;;10.3;4.6;;;;;;;8.5;100.0;102270;;;;
2022/03/17 06:24:00;;;;;;;10.3;4.6;;;;;;;8.5;100.0;102270;;;;
2022/03/17 06:25:00;;;;;;;10.3;4.6;;;;;;;8.4;100.0;102260;;;;